Time;durP1;ratioP1;P1;durP2;ratioP2;P2;SDS_P1;SDS_P2;PMS_P1;PMS_P2;Temp;Humidity;BMP_temperature;BMP_pressure;BME280_temperature;BME280_humidity;BME280_pressure;Samples;Min_cycle;Max_cycle;Signal;HPM_P1;HPM_P2
2021/05/05 00:00:25;;;;;;;18.85;9.95;;;;;;;5.48;69.59;100675.28;1799086;79;21232;-61
2021/05/05 00:03:30;;;;;;;18.10;9.80;;;;;;;5.43;69.65;100676.18;1798732;80;21334;-61
2021/05/05 00:06:36;;;;;;;15.85;9.88;;;;;;;5.37;69.73;100678.95;1798784;79;21706;-63
2021/05/05 00:09:43;;;;;;;19.52;10.10;;;;;;;5.33;69.82;100679.34;1798744;79;21216;-62
2021/05/05 00:12:48;;;;;;;16.10;10.43;;;;;;;5.30;70.08;100671.47;1780744;78;21391;-61
2021/05/05 00:15:56;;;;;;;19.37;10.43;;;;;;;5.29;70.32;100669.27;1760443;81;21220;-61
2021/05/05 00:19:03;;;;;;;18.67;10.28;;;;;;;5.29;70.46;100673.34;1760579;81;21423;-61
2021/05/05 00:22:08;;;;;;;20.90;9.93;;;;;;;5.28;70.61;100673.48;1760225;81;21714;-61
2021/05/05 00:25:15;;;;;;;20.65;9.75;;;;;;;5.25;70.67;100680.54;1760001;81;21991;-61
2021/05/05 00:28:21;;;;;;;22.30;10.38;;;;;;;5.24;70.97;100677.44;1760280;81;21378;-61
2021/05/05 00:31:27;;;;;;;17.92;10.65;;;;;;;5.26;71.00;100684.48;1760618;81;21360;-61
2021/05/05 00:34:34;;;;;;;20.68;10.65;;;;;;;5.24;70.95;100683.74;1760419;81;21244;-60
2021/05/05 00:37:42;;;;;;;18.17;10.72;;;;;;;5.20;71.00;100681.44;1760551;81;21376;-61
2021/05/05 00:40:49;;;;;;;20.15;13.32;;;;;;;5.17;71.15;100675.76;1760551;81;21292;-61
2021/05/05 00:43:57;;;;;;;22.05;11.95;;;;;;;5.17;71.32;100685.26;1760311;81;21865;-61
2021/05/05 00:47:03;;;;;;;21.02;11.73;;;;;;;5.19;71.41;100684.64;1760568;81;21729;-61
2021/05/05 00:50:13;;;;;;;28.52;12.78;;;;;;;5.18;71.52;100683.41;1759703;81;21363;-61
2021/05/05 00:53:20;;;;;;;23.60;12.60;;;;;;;5.18;71.72;100683.41;1760504;81;21202;-61
2021/05/05 00:56:25;;;;;;;18.87;12.23;;;;;;;5.16;71.66;100679.48;1760156;81;21253;-60
2021/05/05 00:59:33;;;;;;;23.45;13.13;;;;;;;5.11;71.76;100684.93;1760510;81;21273;-61
2021/05/05 01:02:40;;;;;;;23.12;13.10;;;;;;;5.10;71.92;100677.80;1760591;81;21355;-61
2021/05/05 01:05:47;;;;;;;23.85;13.85;;;;;;;5.09;71.97;100680.16;1760544;81;21901;-62
2021/05/05 01:08:55;;;;;;;26.00;12.95;;;;;;;5.08;71.99;100682.48;1760525;81;21392;-62
2021/05/05 01:12:03;;;;;;;20.37;12.95;;;;;;;5.08;71.85;100679.77;1760536;81;21363;-62
2021/05/05 01:15:09;;;;;;;20.57;11.20;;;;;;;5.05;71.85;100688.19;1760829;78;21418;-63
2021/05/05 01:18:18;;;;;;;22.80;11.83;;;;;;;5.03;71.88;100686.96;1760508;81;21202;-62
2021/05/05 01:21:24;;;;;;;22.93;12.07;;;;;;;5.03;71.89;100687.45;1760443;81;21420;-60
2021/05/05 01:24:29;;;;;;;20.02;10.88;;;;;;;4.98;71.79;100685.14;1763341;81;21375;-61
2021/05/05 01:27:36;;;;;;;22.50;11.05;;;;;;;4.93;71.80;100683.31;1760556;81;21197;-61
2021/05/05 01:30:44;;;;;;;18.50;10.13;;;;;;;4.90;71.80;100697.67;1760658;81;21272;-62
2021/05/05 01:33:50;;;;;;;18.85;10.72;;;;;;;4.85;71.68;100700.78;1759796;81;21394;-62
2021/05/05 01:36:55;;;;;;;15.55;9.00;;;;;;;4.79;71.59;100690.44;1759990;81;21344;-62
2021/05/05 01:40:02;;;;;;;16.27;10.10;;;;;;;4.72;71.47;100683.84;1760479;81;21284;-62
2021/05/05 01:43:09;;;;;;;17.87;9.43;;;;;;;4.68;71.52;100682.88;1760141;81;21394;-62
2021/05/05 01:46:15;;;;;;;17.57;9.03;;;;;;;4.60;71.68;100685.73;1760291;81;21436;-61
2021/05/05 01:49:30;;;;;;;16.55;9.73;;;;;;;4.60;71.91;100688.92;1760177;81;21332;-61
2021/05/05 01:52:36;;;;;;;14.98;10.00;;;;;;;4.59;71.79;100693.52;1760447;81;22022;-61
2021/05/05 01:55:42;;;;;;;14.03;9.03;;;;;;;4.56;71.85;100683.42;1760490;81;21476;-61
2021/05/05 01:58:47;;;;;;;18.50;9.60;;;;;;;4.55;72.01;100687.97;1760546;81;21253;-61
2021/05/05 02:01:53;;;;;;;20.60;9.98;;;;;;;4.55;72.15;100692.03;1760519;81;21355;-62
2021/05/05 02:05:00;;;;;;;17.00;9.88;;;;;;;4.57;72.22;100688.70;1760439;81;21316;-62
2021/05/05 02:08:08;;;;;;;20.23;10.82;;;;;;;4.58;72.27;100696.36;1760796;81;21189;-62
2021/05/05 02:11:15;;;;;;;18.27;9.35;;;;;;;4.60;72.21;100692.99;1760591;81;21355;-62
2021/05/05 02:14:20;;;;;;;16.32;9.95;;;;;;;4.57;72.09;100692.77;1762604;79;21209;-62
2021/05/05 02:17:24;;;;;;;18.15;9.43;;;;;;;4.52;72.07;100685.52;1804053;79;21801;-61
2021/05/05 02:20:31;;;;;;;15.15;9.45;;;;;;;4.52;72.28;100693.66;1803295;79;21200;-61
2021/05/05 02:23:36;;;;;;;16.07;9.75;;;;;;;4.53;72.48;100687.75;1804203;79;21935;-61
2021/05/05 02:26:42;;;;;;;15.98;9.60;;;;;;;4.56;72.59;100695.13;1804158;79;21374;-61
2021/05/05 02:29:48;;;;;;;12.50;8.90;;;;;;;4.59;72.62;100695.35;1803778;79;21370;-61
2021/05/05 02:32:57;;;;;;;19.07;9.68;;;;;;;4.58;72.71;100694.48;1803341;79;21417;-62
2021/05/05 02:36:05;;;;;;;21.60;9.60;;;;;;;4.59;72.79;100694.87;1804476;79;21213;-60
2021/05/05 02:39:13;;;;;;;14.60;8.85;;;;;;;4.63;72.92;100696.31;1803725;79;21355;-60
2021/05/05 02:42:23;;;;;;;19.02;9.10;;;;;;;4.70;73.05;100695.78;1803897;79;21327;-60
2021/05/05 02:45:29;;;;;;;16.82;8.03;;;;;;;4.75;72.98;100688.13;1804012;79;21736;-62
2021/05/05 02:48:35;;;;;;;13.50;8.28;;;;;;;4.78;73.04;100688.72;1804013;79;21248;-61
2021/05/05 02:51:43;;;;;;;14.80;8.95;;;;;;;4.85;73.22;100681.80;1804213;79;21220;-61
2021/05/05 02:54:49;;;;;;;16.23;8.73;;;;;;;4.89;73.17;100679.16;1803813;79;22010;-61
2021/05/05 02:57:55;;;;;;;22.60;10.05;;;;;;;4.93;73.26;100678.41;1803926;79;21347;-61
2021/05/05 03:01:00;;;;;;;15.78;7.97;;;;;;;5.01;73.62;100684.03;1804092;79;21276;-62
2021/05/05 03:04:07;;;;;;;16.07;8.33;;;;;;;5.09;73.76;100686.94;1803637;79;21354;-62
2021/05/05 03:07:12;;;;;;;16.62;7.95;;;;;;;5.17;73.76;100682.55;1803968;79;21329;-61
2021/05/05 03:10:18;;;;;;;14.47;8.40;;;;;;;5.27;73.74;100679.88;1803626;79;21204;-62
2021/05/05 03:13:23;;;;;;;16.30;7.80;;;;;;;5.35;73.74;100679.58;1803694;79;21378;-61
2021/05/05 03:16:30;;;;;;;10.90;7.47;;;;;;;5.46;73.75;100678.63;1803426;79;21339;-62
2021/05/05 03:19:36;;;;;;;18.70;9.30;;;;;;;5.58;73.73;100686.53;1804358;79;21378;-62
2021/05/05 03:22:41;;;;;;;16.65;9.98;;;;;;;5.70;73.51;100685.94;1804125;79;21343;-60
2021/05/05 03:25:47;;;;;;;29.05;14.18;;;;;;;5.81;73.38;100681.76;1804166;79;21398;-62
2021/05/05 03:28:52;;;;;;;29.10;16.50;;;;;;;5.92;73.16;100680.33;1803628;79;21176;-61
2021/05/05 03:31:58;;;;;;;33.35;18.90;;;;;;;6.04;72.87;100681.95;1802060;79;21371;-61
2021/05/05 03:35:03;;;;;;;35.00;17.35;;;;;;;6.15;72.30;100685.90;1803390;79;21248;-61
2021/05/05 03:38:08;;;;;;;27.93;16.65;;;;;;;6.27;71.86;100683.89;1804243;79;21319;-61
2021/05/05 03:41:13;;;;;;;19.67;14.13;;;;;;;6.39;71.42;100685.50;1803927;79;21232;-62
2021/05/05 03:44:18;;;;;;;18.73;11.45;;;;;;;6.52;71.20;100690.13;1804060;79;21323;-61
2021/05/05 03:47:23;;;;;;;14.83;9.30;;;;;;;6.67;70.91;100690.08;1803752;79;21208;-61
2021/05/05 03:50:29;;;;;;;12.78;7.45;;;;;;;6.80;70.52;100684.69;1803335;79;21369;-60
2021/05/05 03:53:34;;;;;;;13.35;6.33;;;;;;;6.95;69.88;100681.02;1804078;79;21216;-61
2021/05/05 03:56:39;;;;;;;13.58;6.40;;;;;;;7.08;69.24;100685.17;1804114;79;21359;-60
2021/05/05 03:59:47;;;;;;;14.03;6.35;;;;;;;7.23;68.58;100685.05;1804122;79;21205;-61
2021/05/05 04:02:54;;;;;;;9.25;5.70;;;;;;;7.36;67.93;100678.78;1804189;79;21355;-61
2021/05/05 04:05:59;;;;;;;9.08;5.37;;;;;;;7.51;67.28;100681.40;1804102;79;21347;-61
2021/05/05 04:09:07;;;;;;;16.85;6.10;;;;;;;7.67;66.66;100677.16;1803935;79;21292;-61
2021/05/05 04:12:13;;;;;;;11.22;6.08;;;;;;;7.81;66.02;100680.75;1803232;79;21672;-63
2021/05/05 04:15:21;;;;;;;15.08;8.80;;;;;;;7.96;65.46;100680.61;1803668;79;21279;-62
2021/05/05 04:18:45;;;;;;;15.43;7.20;;;;;;;8.10;64.86;100680.97;1802547;79;21208;-61
2021/05/05 04:22:11;;;;;;;14.50;6.00;;;;;;;8.27;64.14;100677.44;1804271;79;21209;-61
2021/05/05 04:25:34;;;;;;;12.37;5.42;;;;;;;8.45;63.42;100676.92;1804137;79;21320;-61
2021/05/05 04:28:39;;;;;;;6.33;4.67;;;;;;;8.63;62.62;100675.06;1804015;79;21334;-61
2021/05/05 04:31:45;;;;;;;5.90;4.00;;;;;;;8.79;61.79;100670.26;1804168;79;21378;-61
2021/05/05 04:34:51;;;;;;;8.23;5.33;;;;;;;8.94;61.15;100670.06;1804037;79;21360;-62
2021/05/05 04:37:56;;;;;;;7.72;4.72;;;;;;;9.09;60.69;100674.78;1802997;79;21358;-62
2021/05/05 04:41:03;;;;;;;7.15;4.53;;;;;;;9.23;60.38;100664.30;1803679;79;21900;-61
2021/05/05 04:44:08;;;;;;;9.58;4.95;;;;;;;9.36;60.27;100669.67;1804247;79;21403;-62
2021/05/05 04:47:14;;;;;;;8.45;4.50;;;;;;;9.51;59.60;100668.07;1803829;79;21374;-61
2021/05/05 04:50:24;;;;;;;8.48;4.90;;;;;;;9.66;59.22;100669.16;1803206;79;21223;-62
2021/05/05 04:53:33;;;;;;;6.53;4.47;;;;;;;9.81;59.15;100670.78;1803706;79;21212;-61
2021/05/05 04:56:38;;;;;;;8.25;5.17;;;;;;;9.97;59.26;100668.12;1803679;79;21459;-61
2021/05/05 04:59:44;;;;;;;15.75;5.47;;;;;;;10.09;59.26;100664.94;1803428;79;21296;-61
2021/05/05 05:02:52;;;;;;;10.55;4.15;;;;;;;10.23;59.24;100675.24;1802786;79;21193;-61
2021/05/05 05:06:00;;;;;;;7.25;4.20;;;;;;;10.39;58.59;100679.39;1800191;79;21217;-60
2021/05/05 05:09:07;;;;;;;8.68;4.85;;;;;;;10.56;57.84;100678.89;1804006;79;21327;-60
2021/05/05 05:12:18;;;;;;;6.40;4.78;;;;;;;10.70;57.76;100671.92;1784611;79;21241;-63
2021/05/05 05:15:23;;;;;;;6.45;4.10;;;;;;;10.83;57.47;100673.11;1767900;80;21221;-59
2021/05/05 05:18:29;;;;;;;9.45;4.05;;;;;;;10.98;57.19;100670.55;1767769;80;21386;-59
2021/05/05 05:21:36;;;;;;;6.05;3.90;;;;;;;11.14;56.48;100670.55;1768325;80;21429;-59
2021/05/05 05:24:43;;;;;;;8.13;3.22;;;;;;;11.31;56.36;100668.99;1768380;80;21189;-59
2021/05/05 05:27:49;;;;;;;4.25;3.30;;;;;;;11.46;55.90;100667.77;1768519;80;21331;-57
2021/05/05 05:30:57;;;;;;;4.67;3.70;;;;;;;11.59;55.58;100668.92;1750445;80;21248;-57
2021/05/05 05:34:05;;;;;;;8.23;3.80;;;;;;;11.73;55.16;100657.80;1735525;82;21248;-58
2021/05/05 05:37:12;;;;;;;6.33;4.08;;;;;;;11.86;55.00;100658.93;1736742;82;21401;-57
2021/05/05 05:40:21;;;;;;;6.08;3.60;;;;;;;11.98;54.78;100653.41;1736575;82;21226;-61
2021/05/05 05:43:27;;;;;;;5.95;3.65;;;;;;;12.14;55.00;100653.84;1772240;80;21360;-59
2021/05/05 05:46:33;;;;;;;6.65;4.10;;;;;;;12.25;54.78;100649.33;1788533;79;21343;-59
2021/05/05 05:49:40;;;;;;;10.90;5.80;;;;;;;12.38;54.74;100650.97;1769918;80;21181;-58
2021/05/05 05:52:46;;;;;;;5.92;3.77;;;;;;;12.50;54.98;100652.25;1768318;80;21184;-58
2021/05/05 05:55:51;;;;;;;9.23;3.00;;;;;;;12.62;54.68;100645.84;1768192;80;21205;-58
2021/05/05 05:58:57;;;;;;;5.20;3.02;;;;;;;12.74;54.26;100647.97;1768663;80;21555;-58
2021/05/05 06:02:04;;;;;;;8.05;3.10;;;;;;;12.88;53.94;100645.79;1772886;80;21400;-59
2021/05/05 06:05:11;;;;;;;5.35;2.77;;;;;;;13.00;53.61;100642.96;1781022;79;21391;-58
2021/05/05 06:08:20;;;;;;;5.72;3.25;;;;;;;13.14;53.31;100639.42;1768077;80;21410;-58
2021/05/05 06:11:26;;;;;;;4.15;3.00;;;;;;;13.26;52.91;100644.80;1767966;80;21220;-59
2021/05/05 06:14:33;;;;;;;6.40;2.45;;;;;;;13.39;52.33;100643.64;1730189;80;21247;-59
2021/05/05 06:17:40;;;;;;;5.28;2.25;;;;;;;13.51;52.29;100645.38;1782583;80;21189;-59
2021/05/05 06:20:46;;;;;;;4.67;2.70;;;;;;;13.63;52.41;100651.28;1765724;78;21208;-59
2021/05/05 06:23:51;;;;;;;7.50;3.17;;;;;;;13.75;50.95;100645.11;1751042;81;21340;-59
2021/05/05 06:26:56;;;;;;;6.70;2.67;;;;;;;13.85;50.43;100649.82;1749667;82;21206;-59
2021/05/05 06:30:01;;;;;;;6.35;2.77;;;;;;;13.97;50.04;100646.07;1704396;84;21236;-60
2021/05/05 06:33:10;;;;;;;4.37;2.50;;;;;;;14.08;48.95;100654.67;1749994;82;21212;-59
2021/05/05 06:36:15;;;;;;;4.20;2.65;;;;;;;14.19;48.92;100650.59;1705257;83;21241;-60
2021/05/05 06:39:20;;;;;;;4.25;2.67;;;;;;;14.27;49.03;100654.66;1748669;81;21511;-58
2021/05/05 06:42:25;;;;;;;4.70;2.60;;;;;;;14.35;49.16;100651.25;1730716;81;21228;-59
2021/05/05 06:45:31;;;;;;;8.13;2.72;;;;;;;14.42;49.06;100646.68;1672318;85;21227;-60
2021/05/05 06:48:36;;;;;;;8.75;2.58;;;;;;;14.50;48.74;100652.08;1754415;81;21731;-60
2021/05/05 06:51:43;;;;;;;6.25;2.70;;;;;;;14.57;47.36;100652.16;1750922;81;21734;-59
2021/05/05 06:54:49;;;;;;;3.25;2.30;;;;;;;14.68;47.59;100657.15;1749211;81;21323;-59
2021/05/05 06:57:56;;;;;;;5.00;2.77;;;;;;;14.77;47.94;100639.43;1749034;81;21367;-59
2021/05/05 07:01:01;;;;;;;3.17;2.35;;;;;;;14.85;48.02;100640.68;1733493;82;21376;-58
2021/05/05 07:04:09;;;;;;;7.47;2.90;;;;;;;14.95;47.20;100645.34;1748488;82;21313;-59
2021/05/05 07:07:15;;;;;;;3.95;2.50;;;;;;;15.01;46.68;100652.81;1662231;86;21203;-58
2021/05/05 07:10:21;;;;;;;6.92;2.62;;;;;;;15.09;46.56;100643.55;1731747;81;21209;-59
2021/05/05 07:13:30;;;;;;;5.00;2.62;;;;;;;15.15;45.59;100646.37;1753120;81;21194;-57
2021/05/05 07:16:39;;;;;;;8.50;2.70;;;;;;;15.24;45.93;100657.58;1724978;82;21236;-60
2021/05/05 07:19:49;;;;;;;7.70;2.45;;;;;;;15.33;46.32;100633.47;1675286;85;21258;-58
2021/05/05 07:22:54;;;;;;;7.42;2.50;;;;;;;15.41;46.07;100636.11;1765074;81;21160;-59
2021/05/05 07:25:59;;;;;;;6.95;2.08;;;;;;;15.49;46.35;100624.92;1766624;81;21667;-59
2021/05/05 07:29:06;;;;;;;3.33;2.00;;;;;;;15.55;45.18;100622.22;1766693;81;21193;-58
2021/05/05 07:32:16;;;;;;;2.55;1.70;;;;;;;15.60;44.22;100621.61;1783008;80;21694;-59
2021/05/05 07:35:22;;;;;;;4.70;1.87;;;;;;;15.64;43.79;100607.70;1792709;79;21844;-59
2021/05/05 07:42:11;;;;;;;2.80;1.87;;;;;;;15.83;44.94;100605.59;1770124;80;21185;-59
2021/05/05 07:48:10;;;;;;;3.42;2.12;;;;;;;16.06;44.47;100603.39;1770367;80;21290;-61
2021/05/05 07:51:17;;;;;;;4.15;2.00;;;;;;;16.11;42.51;100598.94;1734605;82;21239;-62
2021/05/05 07:54:23;;;;;;;3.10;2.27;;;;;;;16.18;42.69;100598.96;1771307;80;21864;-59
2021/05/05 07:57:28;;;;;;;3.85;2.30;;;;;;;16.25;43.70;100599.30;1734552;82;21613;-59
2021/05/05 08:00:32;;;;;;;5.15;2.00;;;;;;;16.30;42.83;100590.38;1770770;80;21368;-60
2021/05/05 08:03:37;;;;;;;3.62;2.15;;;;;;;16.33;43.89;100587.23;1770088;80;21242;-58
2021/05/05 08:07:03;;;;;;;3.35;1.95;;;;;;;16.47;44.32;100581.23;1625200;88;21301;-58
2021/05/05 08:10:10;;;;;;;4.17;2.10;;;;;;;16.56;44.30;100586.88;1637805;86;21240;-58
2021/05/05 08:13:15;;;;;;;5.35;2.08;;;;;;;16.61;44.88;100581.58;1671629;84;21329;-59
2021/05/05 08:16:22;;;;;;;9.43;2.00;;;;;;;16.66;45.60;100584.57;1676212;85;21844;-59
2021/05/05 08:19:29;;;;;;;4.80;2.02;;;;;;;16.78;45.16;100590.64;1678214;84;22136;-58
2021/05/05 08:22:35;;;;;;;5.62;2.40;;;;;;;16.87;44.43;100583.01;1676765;85;21340;-59
2021/05/05 08:25:42;;;;;;;3.75;2.20;;;;;;;16.95;43.74;100588.33;1683180;84;21296;-59
2021/05/05 08:28:52;;;;;;;4.78;2.50;;;;;;;17.00;43.83;100570.58;1687387;85;21809;-58
2021/05/05 08:31:59;;;;;;;3.40;2.62;;;;;;;17.12;44.62;100575.77;1687832;85;21257;-59
2021/05/05 08:35:05;;;;;;;7.35;2.62;;;;;;;17.21;43.58;100578.63;1687804;84;21447;-59
2021/05/05 08:38:10;;;;;;;7.05;3.00;;;;;;;17.29;43.48;100578.42;1752767;79;21379;-58
2021/05/05 08:41:19;;;;;;;4.50;2.00;;;;;;;17.38;42.23;100577.12;1793004;79;21595;-58
2021/05/05 08:44:25;;;;;;;8.18;1.72;;;;;;;17.45;41.34;100571.08;1770721;81;21725;-58
2021/05/05 08:47:31;;;;;;;2.85;1.80;;;;;;;17.48;40.49;100559.58;1777581;79;21457;-59
2021/05/05 08:50:39;;;;;;;4.50;1.70;;;;;;;17.53;39.72;100572.24;1735450;82;21423;-59
2021/05/05 08:53:46;;;;;;;1.72;1.60;;;;;;;17.61;39.59;100558.17;1777821;79;21351;-58
2021/05/05 08:56:54;;;;;;;6.00;1.65;;;;;;;17.76;39.20;100550.44;1794482;79;21824;-59
2021/05/05 09:00:00;;;;;;;2.72;1.90;;;;;;;17.88;38.44;100562.56;1791858;79;21380;-58
2021/05/05 09:03:08;;;;;;;2.47;1.70;;;;;;;17.93;37.63;100560.52;1771646;79;21225;-61
2021/05/05 09:06:16;;;;;;;4.30;1.50;;;;;;;17.96;36.67;100568.38;1784754;79;21932;-64
2021/05/05 09:09:47;;;;;;;1.55;1.20;;;;;;;18.06;35.66;100564.06;1766478;80;21176;-62
2021/05/05 09:12:54;;;;;;;2.42;1.30;;;;;;;18.16;34.58;100563.07;1772031;81;21872;-63
2021/05/05 09:16:15;;;;;;;6.25;1.57;;;;;;;18.19;34.57;100568.73;1767148;80;21266;-63
2021/05/05 09:19:20;;;;;;;2.40;1.42;;;;;;;18.14;35.05;100561.61;1772207;81;21323;-62
2021/05/05 09:22:51;;;;;;;3.58;1.77;;;;;;;18.03;35.07;100553.98;1772016;79;21209;-64
2021/05/05 09:25:57;;;;;;;3.40;1.50;;;;;;;18.00;35.64;100555.25;1768031;80;21453;-64
2021/05/05 09:29:03;;;;;;;4.65;1.70;;;;;;;18.08;36.49;100546.69;1767214;80;21180;-61
2021/05/05 09:32:09;;;;;;;3.75;1.60;;;;;;;18.19;36.79;100543.23;1777210;79;21931;-63
2021/05/05 09:35:17;;;;;;;5.08;1.60;;;;;;;18.26;36.88;100539.90;1770798;80;21473;-62
2021/05/05 09:38:23;;;;;;;3.98;1.95;;;;;;;18.31;36.49;100533.69;1782720;79;21244;-64
2021/05/05 09:41:37;;;;;;;6.90;2.02;;;;;;;18.27;36.37;100529.12;1787462;79;21711;-62
2021/05/05 09:44:42;;;;;;;3.72;1.92;;;;;;;18.27;36.81;100509.71;1783303;79;21852;-60
2021/05/05 09:48:04;;;;;;;4.00;2.22;;;;;;;18.35;37.33;100517.77;1709432;82;21275;-61
2021/05/05 09:51:09;;;;;;;6.12;1.67;;;;;;;18.45;37.63;100510.38;1785284;79;21389;-60
2021/05/05 09:54:14;;;;;;;2.75;1.87;;;;;;;18.61;37.02;100519.02;1787311;79;21501;-61
2021/05/05 09:57:32;;;;;;;4.33;1.57;;;;;;;18.66;36.89;100505.30;1790418;79;21189;-61
2021/05/05 10:00:37;;;;;;;2.30;1.70;;;;;;;18.71;36.61;100497.16;1803252;79;21343;-62
2021/05/05 10:03:55;;;;;;;6.83;2.65;;;;;;;18.82;37.68;100497.81;1791708;79;21340;-64
2021/05/05 10:07:06;;;;;;;6.42;1.90;;;;;;;18.98;37.19;100495.86;1772470;79;21340;-62
2021/05/05 10:10:13;;;;;;;5.00;2.20;;;;;;;19.15;37.36;100491.98;1769940;79;21347;-65
2021/05/05 10:13:18;;;;;;;3.33;1.82;;;;;;;19.25;36.36;100495.92;1799854;79;21370;-62
2021/05/05 10:16:24;;;;;;;5.40;1.90;;;;;;;19.31;36.48;100480.31;1802628;79;21256;-62
2021/05/05 10:19:35;;;;;;;4.28;1.67;;;;;;;19.42;36.38;100483.72;1800943;79;21339;-64
2021/05/05 10:22:42;;;;;;;2.85;1.90;;;;;;;19.52;36.02;100496.50;1802314;79;21366;-61
2021/05/05 10:25:48;;;;;;;7.17;1.90;;;;;;;19.56;35.95;100477.45;1740314;81;21212;-63
2021/05/05 10:28:53;;;;;;;3.98;1.70;;;;;;;19.65;36.32;100488.02;1750956;81;21876;-63
2021/05/05 10:32:03;;;;;;;4.70;1.62;;;;;;;19.85;36.22;100483.63;1765997;81;21207;-64
2021/05/05 10:35:10;;;;;;;7.95;1.80;;;;;;;19.98;35.69;100476.51;1763691;81;21220;-64
2021/05/05 10:38:16;;;;;;;2.55;1.60;;;;;;;20.10;35.71;100462.97;1766290;81;21205;-61
2021/05/05 10:41:22;;;;;;;3.92;2.10;;;;;;;20.21;35.40;100466.36;1750877;80;21264;-60
2021/05/05 10:44:32;;;;;;;6.17;1.87;;;;;;;20.32;35.29;100464.70;1767166;81;21354;-61
2021/05/05 10:47:40;;;;;;;4.92;1.75;;;;;;;20.41;35.19;100459.09;1762381;80;21185;-62
2021/05/05 10:51:02;;;;;;;6.15;3.67;;;;;;;20.44;35.03;100455.30;1737627;81;21283;-61
2021/05/05 10:54:07;;;;;;;5.80;2.17;;;;;;;20.61;35.16;100448.52;1761736;81;21383;-62
2021/05/05 10:57:17;;;;;;;4.72;2.05;;;;;;;20.81;34.70;100460.14;1761946;81;21212;-59
2021/05/05 11:00:23;;;;;;;5.55;1.67;;;;;;;20.80;34.77;100456.50;1763626;81;21363;-61
2021/05/05 11:03:54;;;;;;;7.15;2.00;;;;;;;20.80;34.77;100448.72;1767262;81;21343;-65
2021/05/05 11:07:02;;;;;;;2.08;1.60;;;;;;;20.88;34.28;100438.62;1765149;81;21235;-65
2021/05/05 11:10:09;;;;;;;7.47;1.80;;;;;;;20.93;33.96;100437.33;1762050;81;21212;-69
2021/05/05 11:13:32;;;;;;;3.87;1.60;;;;;;;21.11;34.13;100433.08;1735695;82;21247;-65
2021/05/05 11:17:05;;;;;;;6.33;2.50;;;;;;;21.39;35.05;100444.30;1755731;81;21240;-60
2021/05/05 11:20:13;;;;;;;6.03;2.05;;;;;;;21.67;34.58;100429.05;1710048;82;21204;-61
2021/05/05 11:23:43;;;;;;;4.28;1.70;;;;;;;22.09;34.41;100421.27;1713112;82;21216;-63
2021/05/05 11:26:51;;;;;;;6.53;1.70;;;;;;;22.16;32.61;100433.98;1791502;79;21355;-63
2021/05/05 11:29:58;;;;;;;2.87;1.40;;;;;;;22.11;32.61;100427.45;1791474;79;21189;-63
2021/05/05 11:33:05;;;;;;;6.42;1.98;;;;;;;22.04;32.70;100419.23;1796763;79;21279;-58
2021/05/05 11:36:25;;;;;;;2.75;1.45;;;;;;;22.04;32.58;100414.22;1792649;80;21963;-57
2021/05/05 11:39:40;;;;;;;7.08;1.72;;;;;;;21.99;33.20;100416.91;1792625;80;21407;-57
2021/05/05 11:42:49;;;;;;;12.90;1.90;;;;;;;22.18;33.34;100419.22;1792389;80;21751;-56
2021/05/05 11:46:00;;;;;;;3.02;1.57;;;;;;;22.55;33.32;100418.81;1777317;79;21789;-58
2021/05/05 11:49:08;;;;;;;9.83;3.05;;;;;;;22.63;32.39;100415.61;1768142;80;21837;-57
2021/05/05 11:52:47;;;;;;;10.20;2.22;;;;;;;22.56;32.60;100406.00;1796298;79;21366;-57
2021/05/05 11:55:56;;;;;;;4.37;1.62;;;;;;;22.68;32.42;100406.75;1783498;79;21201;-57
2021/05/05 11:59:08;;;;;;;6.42;1.90;;;;;;;22.87;31.35;100393.37;1769442;81;21299;-58
2021/05/05 12:02:16;;;;;;;3.75;1.70;;;;;;;22.88;30.96;100398.69;1773699;79;21848;-58
2021/05/05 12:05:36;;;;;;;3.00;1.72;;;;;;;22.79;31.28;100394.66;1769382;80;21383;-57
2021/05/05 12:08:46;;;;;;;5.62;1.67;;;;;;;22.72;31.26;100395.36;1769966;79;21379;-60
2021/05/05 12:11:51;;;;;;;7.80;2.20;;;;;;;22.55;31.31;100386.73;1761897;81;21896;-59
2021/05/05 12:14:58;;;;;;;4.33;1.90;;;;;;;22.43;32.31;100394.28;1768778;80;21233;-59
2021/05/05 12:18:06;;;;;;;4.72;1.72;;;;;;;22.63;32.09;100382.12;1792581;79;21923;-60
2021/05/05 12:21:18;;;;;;;5.62;1.90;;;;;;;22.55;31.78;100393.70;1797013;79;21829;-61
2021/05/05 12:24:25;;;;;;;7.65;1.98;;;;;;;22.59;31.82;100373.94;1747269;81;21182;-60
2021/05/05 12:27:30;;;;;;;5.58;1.65;;;;;;;22.83;32.10;100365.68;1719921;81;21210;-63
2021/05/05 12:30:54;;;;;;;4.00;2.33;;;;;;;23.19;31.48;100367.88;1738353;82;21620;-61
2021/05/05 12:33:59;;;;;;;;;;;;;;;23.19;31.10;100363.15;1714170;83;21185;-59
2021/05/05 12:37:05;;;;;;;5.83;2.27;;;;;;;23.31;32.42;100368.08;1770262;80;20217;-59
2021/05/05 12:40:15;;;;;;;6.12;2.90;;;;;;;23.54;30.99;100350.22;1770442;81;21341;-60
2021/05/05 12:43:30;;;;;;;8.10;2.62;;;;;;;23.58;30.69;100361.15;1770387;81;21201;-61
2021/05/05 12:46:57;;;;;;;5.08;2.12;;;;;;;23.48;30.99;100355.45;1718911;82;21366;-61
2021/05/05 12:50:06;;;;;;;5.15;2.45;;;;;;;23.31;30.54;100344.88;1770754;80;21216;-61
2021/05/05 12:53:12;;;;;;;4.75;1.87;;;;;;;23.14;31.37;100345.46;1796775;79;21366;-62
2021/05/05 12:56:20;;;;;;;4.65;1.90;;;;;;;23.15;30.90;100343.80;1793946;79;21343;-60
2021/05/05 12:59:40;;;;;;;8.43;4.37;;;;;;;23.05;30.96;100337.24;1760660;81;21224;-61
2021/05/05 13:02:49;;;;;;;7.28;2.10;;;;;;;23.15;31.31;100325.64;1717089;82;21249;-61
2021/05/05 13:06:12;;;;;;;8.48;4.75;;;;;;;23.30;30.87;100337.61;1776212;79;21205;-60
2021/05/05 13:09:25;;;;;;;8.47;4.03;;;;;;;23.29;30.49;100323.36;1770804;81;21204;-60
2021/05/05 13:12:44;;;;;;;4.12;2.27;;;;;;;23.35;30.95;100318.13;1769518;81;21339;-61
2021/05/05 13:16:05;;;;;;;6.70;2.17;;;;;;;23.46;30.33;100316.59;1769290;80;21347;-61
2021/05/05 13:32:10;;;;;;;34.50;4.50;;;;;;;23.47;30.50;100307.64;1748625;79;21878;-61
2021/05/05 13:35:43;;;;;;;4.40;1.80;;;;;;;23.44;30.13;100324.39;1771545;80;21271;-61
2021/05/05 13:38:48;;;;;;;5.95;2.05;;;;;;;23.31;30.18;100311.35;1789162;79;21340;-59
2021/05/05 13:42:05;;;;;;;2.55;1.67;;;;;;;22.93;31.01;100307.20;1797098;79;21209;-59
2021/05/05 13:45:12;;;;;;;5.00;2.22;;;;;;;22.69;30.84;100300.97;1791369;79;21217;-59
2021/05/05 13:48:38;;;;;;;3.67;1.90;;;;;;;22.41;31.05;100293.24;1771657;81;21177;-60
2021/05/05 13:51:34;;;;;;;6.53;2.10;;;;;;;22.29;31.39;100290.56;1771315;81;21373;-60
2021/05/05 13:54:40;;;;;;;5.20;1.70;;;;;;;22.55;32.01;100283.48;1771923;81;21721;-59
2021/05/05 13:57:50;;;;;;;6.10;1.90;;;;;;;22.79;31.74;100282.13;1784360;79;21218;-59
2021/05/05 14:00:53;;;;;;;4.53;1.55;;;;;;;23.24;31.33;100278.02;1803349;79;21914;-61
2021/05/05 14:04:00;;;;;;;4.75;1.80;;;;;;;23.86;29.69;100271.46;1770834;80;21328;-63
2021/05/05 14:07:08;;;;;;;7.80;2.27;;;;;;;24.21;29.48;100265.36;1801061;79;21256;-64
2021/05/05 14:10:17;;;;;;;12.50;2.55;;;;;;;24.34;29.66;100264.34;1803189;79;21669;-63
2021/05/05 14:13:22;;;;;;;4.33;1.72;;;;;;;24.15;29.39;100268.66;1802719;79;21387;-64
2021/05/05 14:16:27;;;;;;;5.85;1.82;;;;;;;23.88;29.76;100262.23;1801081;79;21358;-63
2021/05/05 14:19:33;;;;;;;8.53;2.00;;;;;;;23.65;29.81;100265.37;1793431;79;21389;-64
2021/05/05 14:22:40;;;;;;;5.03;1.90;;;;;;;23.49;30.67;100264.91;1773470;79;21209;-63
2021/05/05 14:25:47;;;;;;;5.17;1.80;;;;;;;23.59;30.51;100256.65;1795100;79;21394;-63
2021/05/05 14:28:55;;;;;;;5.22;1.70;;;;;;;23.72;30.33;100258.17;1786709;79;21348;-65
2021/05/05 14:32:02;;;;;;;6.17;2.27;;;;;;;23.87;30.19;100266.14;1748952;81;21273;-64
2021/05/05 14:35:08;;;;;;;7.67;2.08;;;;;;;23.85;30.03;100262.77;1749523;81;21220;-64
2021/05/05 14:38:19;;;;;;;4.78;2.15;;;;;;;23.86;29.95;100261.67;1742618;81;21444;-64
2021/05/05 14:41:31;;;;;;;4.90;1.85;;;;;;;24.26;28.92;100250.84;1718154;83;21225;-65
2021/05/05 14:44:33;;;;;;;6.90;1.77;;;;;;;24.85;28.84;100260.80;1741513;81;21355;-67
2021/05/05 14:51:06;;;;;;;3.02;1.40;;;;;;;25.60;28.12;100249.61;1745382;81;21742;-62
2021/05/05 14:54:13;;;;;;;4.20;1.60;;;;;;;25.93;27.46;100256.96;1746592;81;21217;-63
2021/05/05 14:57:21;;;;;;;1.82;1.37;;;;;;;26.12;26.71;100248.86;1693957;84;21209;-64